Powersburg, Kentucky
Current Conditions -  °F | °C
As of 4:56 AM on Sunday 23 Nov 2014 (Local Time) from KEKQ Reporting Station
Scattered Clouds Scattered Clouds  
Wind Chill: 54°   Ceiling: Unl
Heat Index: 54°   Visibility: 10mi
Dew Point: 40°   Wind: 5mph
Humidity: 59%   Direction: NA
Pressure: 30.04"   Gusts: NA
Location:  36.8129°N, 84.8215°W
Report Text: KEKQ 230956Z AUTO VRB04KT 10SM SCT055 12/04 A3004 RMK AO2 T01220044 SLP173
Loading
Personal Weather Stations






























Interactive Weather Map New forecast layout! Learn more

10-Day Weather Forecast

Advertisements
Track Severe Weather on mobile